Nanty Glo, PA (15943)

6:10 AM EDT on October 25, 2014 (GMT -0400)
Chickaree Summit | Change Station
CLOSE
Current Station
Personal Weather Station
Location: Johnstown, PA
Elevation: 1759 ft
Nearby Weather Stations

Elev 1759 ft 40.42 °N, 78.87 °W | Updated 4 seconds ago

Overcast
Overcast
37.5 °F
Feels Like 38 °F
N
0.0
Wind Variable Wind from NNW
Gusts 0.0 mph

Today
High -- | Low -- °F
--% Chance of Precip.
Yesterday
High -- | Low -- °F
Precip. -- in
7:37 AM 6:20 PM
New Moon, 2% visible
Pressure 29.95 in
Visibility 10.0 miles
Clouds Overcast 3800 ft
Windchill 38 °F
Dew Point 37 °F
Humidity 95%
Rainfall 0.00 in
Snow Depth Not available.
UV 0 out of 12
Pollen 1.20 out of 12
Air Quality Not available.
Flu Activity Sporadic
METAR KJST 250954Z AUTO 25008KT 10SM OVC038 09/03 A2994 RMK AO2 SLP141 T00890028

More Conditions Fewer Conditions

Pressure 29.95 in
Visibility 10.0 miles
Clouds Overcast 3800 ft
Windchill 38 °F
Dew Point 37 °F
Humidity 95%
Rainfall 0.00 in
Snow Depth Not available.
UV 0 out of 12
Pollen 1.20 out of 12
Air Quality Not available.
Flu Activity Sporadic
METAR KJST 250954Z AUTO 25008KT 10SM OVC038 09/03 A2994 RMK AO2 SLP141 T00890028

More Conditions Fewer Conditions

10-Day Weather Forecast

Almanac

Astronomy

Oct. 25, 2014 Rise Set
Actual Time 7:37 AM EDT 6:20 PM EDT
Civil Twilight 7:09 AM EDT 6:48 PM EDT
Nautical Twilight 6:37 AM EDT 7:20 PM EDT
Astronomical Twilight 6:05 AM EDT 7:52 PM EDT
Moon 9:14 AM EDT 7:42 PM EDT
Length of Visible Light 11h 39m
Length of Day
10h 43m
Tomorrow will be 2m 28s shorter.
New Moon, 2% of the Moon is Illuminated
Today
New Moon
Oct 30
First Quarter
Nov 6
Full
Nov 14
Last Quarter
Nov 22
New

Today's Extremes

State Highs State Lows

Community

WunderPhotos

Upload Photos

1,764,796 photos uploaded!

Nearby

Snow Depth

Station Depth Elevation
No new snow has been reported.

Earthquake Activity

City Distance Mag. Time & Date
No recent earthquake activity has been reported nearby.
Minimum magnitude displayed is 2.5.

Coastal Water Temperatures

Place Temperature
No Stations Reporting

Nearby Weather Stations